Time;durP1;ratioP1;P1;durP2;ratioP2;P2;SDS_P1;SDS_P2;PMS_P1;PMS_P2;Temp;Humidity;BMP_temperature;BMP_pressure;BME280_temperature;BME280_humidity;BME280_pressure;Samples;Min_cycle;Max_cycle;Signal;HPM_P1;HPM_P2
2021/12/04 00:00:03;;;;;;;4.00;3.70;;;6.40;99.90;;;;;;4972647;28;20041;-82
2021/12/04 00:02:29;;;;;;;4.20;3.90;;;6.50;99.90;;;;;;4971576;28;20025;-85
2021/12/04 00:04:56;;;;;;;5.05;4.55;;;6.50;99.90;;;;;;4972914;28;20027;-85
2021/12/04 00:07:23;;;;;;;5.00;4.60;;;6.50;99.90;;;;;;4972349;28;20023;-82
2021/12/04 00:09:50;;;;;;;4.55;4.13;;;6.50;99.90;;;;;;4971984;28;20023;-84
2021/12/04 00:12:20;;;;;;;3.70;3.40;;;6.50;99.90;;;;;;4972366;28;20026;-84
2021/12/04 00:14:45;;;;;;;5.03;4.63;;;6.50;99.90;;;;;;4973787;28;20054;-85
2021/12/04 00:17:11;;;;;;;4.75;4.35;;;6.50;99.90;;;;;;4974180;28;20443;-83
2021/12/04 00:19:37;;;;;;;3.90;3.60;;;6.60;99.90;;;;;;4975969;28;20455;-83
2021/12/04 00:22:04;;;;;;;3.63;3.38;;;6.50;99.90;;;;;;4976099;28;20022;-83
2021/12/04 00:24:30;;;;;;;3.90;3.60;;;6.60;99.90;;;;;;4973666;28;20058;-84
2021/12/04 00:26:56;;;;;;;3.55;3.30;;;6.60;99.90;;;;;;4975811;28;20050;-83
2021/12/04 00:29:22;;;;;;;6.55;4.70;;;6.60;99.90;;;;;;4974770;28;20114;-83
2021/12/04 00:31:51;;;;;;;4.30;3.90;;;6.60;99.90;;;;;;4974066;28;20158;-83
2021/12/04 00:34:20;;;;;;;4.38;3.97;;;6.60;99.90;;;;;;4974114;28;20495;-83
2021/12/04 00:50:30;;;;;;;4.30;4.00;;;6.60;99.90;;;;;;4975136;28;20038;-82
2021/12/04 00:52:56;;;;;;;4.20;3.90;;;6.60;99.90;;;;;;4974951;28;20023;-82
2021/12/04 00:55:22;;;;;;;4.50;4.20;;;6.60;99.90;;;;;;4975326;28;20030;-82
2021/12/04 00:57:48;;;;;;;4.15;3.85;;;6.60;99.90;;;;;;4973924;28;20033;-82
2021/12/04 01:00:14;;;;;;;4.47;4.10;;;6.60;99.90;;;;;;4972963;28;20110;-82
2021/12/04 01:02:42;;;;;;;4.20;3.90;;;6.60;99.90;;;;;;4975317;28;20023;-82
2021/12/04 01:05:08;;;;;;;4.45;4.10;;;6.60;99.90;;;;;;4973986;28;20054;-81
2021/12/04 01:07:34;;;;;;;4.95;4.30;;;6.60;99.90;;;;;;4973079;28;20093;-81
2021/12/04 01:10:00;;;;;;;3.90;3.60;;;6.60;99.90;;;;;;4973815;28;20053;-81
2021/12/04 01:12:27;;;;;;;4.40;4.00;;;6.60;99.90;;;;;;4974573;28;20046;-81
2021/12/04 01:14:53;;;;;;;3.97;3.67;;;6.60;99.90;;;;;;4973125;28;20521;-80
2021/12/04 01:17:18;;;;;;;4.32;4.03;;;6.60;99.90;;;;;;4973464;28;20139;-81
2021/12/04 01:19:44;;;;;;;4.00;3.70;;;6.70;99.90;;;;;;4972844;28;20045;-82
2021/12/04 01:22:10;;;;;;;4.28;3.97;;;6.60;99.90;;;;;;4973394;28;20514;-82
2021/12/04 01:24:35;;;;;;;4.22;3.75;;;6.70;99.90;;;;;;4974845;28;20451;-82
2021/12/04 01:27:01;;;;;;;3.92;3.63;;;6.70;99.90;;;;;;4972059;28;20479;-81
2021/12/04 01:29:26;;;;;;;5.00;4.57;;;6.70;99.90;;;;;;4974490;28;20459;-81
2021/12/04 01:31:52;;;;;;;4.00;3.70;;;6.70;99.90;;;;;;4973623;28;20027;-82
2021/12/04 01:34:18;;;;;;;4.55;4.15;;;6.70;99.90;;;;;;4973920;28;20542;-81
2021/12/04 01:36:44;;;;;;;4.15;3.85;;;6.70;99.90;;;;;;4972788;28;20073;-81
2021/12/04 01:39:11;;;;;;;4.20;3.80;;;6.70;99.90;;;;;;4973456;28;20498;-82
2021/12/04 01:41:37;;;;;;;4.72;4.22;;;6.70;99.90;;;;;;4973596;28;20099;-82
2021/12/04 01:44:04;;;;;;;4.45;4.05;;;6.70;99.90;;;;;;4973299;28;20030;-81
2021/12/04 01:46:31;;;;;;;4.60;4.20;;;6.70;99.90;;;;;;4972587;28;20372;-82
2021/12/04 01:48:57;;;;;;;4.05;3.75;;;6.70;99.90;;;;;;4973084;28;20037;-81
2021/12/04 01:51:23;;;;;;;5.00;4.60;;;6.70;99.90;;;;;;4974164;28;20109;-82
2021/12/04 01:53:49;;;;;;;4.72;4.32;;;6.60;99.90;;;;;;4973523;28;20023;-81
2021/12/04 01:56:16;;;;;;;4.13;3.83;;;6.70;99.90;;;;;;4973100;28;20027;-81
2021/12/04 01:58:43;;;;;;;4.60;4.20;;;6.70;99.90;;;;;;4973028;28;20033;-82
2021/12/04 02:01:10;;;;;;;4.60;4.20;;;6.60;99.90;;;;;;4973000;28;20025;-82
2021/12/04 02:03:36;;;;;;;4.78;4.20;;;6.60;99.90;;;;;;4973165;28;20022;-81
2021/12/04 02:06:02;;;;;;;4.35;4.05;;;6.60;99.90;;;;;;4972803;28;20042;-81
2021/12/04 02:08:28;;;;;;;4.70;4.30;;;6.60;99.90;;;;;;4973680;28;20476;-82
2021/12/04 02:10:57;;;;;;;5.15;4.68;;;6.60;99.90;;;;;;4973224;28;20066;-82
2021/12/04 02:13:23;;;;;;;4.38;4.05;;;6.60;99.90;;;;;;4972219;28;20015;-81
2021/12/04 02:15:50;;;;;;;4.45;4.15;;;6.60;99.90;;;;;;4972907;28;20081;-82
2021/12/04 02:18:18;;;;;;;4.85;4.40;;;6.60;99.90;;;;;;4971785;28;20033;-81
2021/12/04 02:20:44;;;;;;;4.53;4.13;;;6.60;99.90;;;;;;4973735;28;20387;-83
2021/12/04 02:23:10;;;;;;;4.88;4.47;;;6.60;99.90;;;;;;4971744;28;20022;-82
2021/12/04 02:25:37;;;;;;;4.80;4.40;;;6.60;99.90;;;;;;4972546;28;20045;-82
2021/12/04 02:28:04;;;;;;;4.30;4.00;;;6.60;99.90;;;;;;4973804;28;20030;-83
2021/12/04 02:30:33;;;;;;;5.10;4.60;;;6.60;99.90;;;;;;4972779;28;20038;-82
2021/12/04 02:32:59;;;;;;;4.88;4.43;;;6.60;99.90;;;;;;4973810;28;20030;-88
2021/12/04 02:35:25;;;;;;;4.80;4.30;;;6.60;99.90;;;;;;4971911;28;20538;-81
2021/12/04 02:37:52;;;;;;;4.70;4.30;;;6.70;99.90;;;;;;4971679;28;20035;-82
2021/12/04 02:40:21;;;;;;;5.43;4.93;;;6.70;99.90;;;;;;4972046;28;20460;-82
2021/12/04 02:42:49;;;;;;;4.90;4.50;;;6.70;99.90;;;;;;4972361;28;20027;-82
2021/12/04 02:45:16;;;;;;;4.30;3.90;;;6.70;99.90;;;;;;4971300;28;20058;-82
2021/12/04 02:47:42;;;;;;;4.05;3.75;;;6.60;99.90;;;;;;4972220;28;20023;-85
2021/12/04 02:50:11;;;;;;;4.13;3.83;;;6.60;99.90;;;;;;4972231;28;20451;-82
2021/12/04 02:52:38;;;;;;;3.83;3.53;;;6.60;99.90;;;;;;4972387;28;20046;-83
2021/12/04 02:55:05;;;;;;;3.97;3.67;;;6.60;99.90;;;;;;4973335;28;20062;-83
2021/12/04 02:57:33;;;;;;;3.58;3.28;;;6.60;99.90;;;;;;4972826;28;20481;-83
2021/12/04 02:59:59;;;;;;;3.63;3.33;;;6.60;99.90;;;;;;4972791;28;20030;-83
2021/12/04 03:02:25;;;;;;;3.47;3.17;;;6.70;99.90;;;;;;4971634;28;20412;-81
2021/12/04 03:04:59;;;;;;;4.00;3.60;;;6.60;99.90;;;;;;4972183;28;20022;-81
2021/12/04 03:07:26;;;;;;;4.15;3.85;;;6.60;99.90;;;;;;4970942;28;20046;-81
2021/12/04 03:09:53;;;;;;;3.42;3.22;;;6.60;99.90;;;;;;4973090;28;20027;-82
2021/12/04 03:12:20;;;;;;;3.15;2.95;;;6.60;99.90;;;;;;4971049;28;20034;-85
2021/12/04 03:14:46;;;;;;;3.13;2.90;;;6.60;99.90;;;;;;4971577;28;20023;-85
2021/12/04 03:17:15;;;;;;;3.47;3.10;;;6.60;99.90;;;;;;4971389;28;20082;-80
2021/12/04 03:19:41;;;;;;;3.35;3.03;;;6.60;99.90;;;;;;4973107;28;20041;-78
2021/12/04 03:22:08;;;;;;;4.63;3.30;;;6.60;99.90;;;;;;4991249;28;20022;-79
2021/12/04 03:24:37;;;;;;;3.17;2.92;;;6.60;99.90;;;;;;4990962;28;20030;-79
2021/12/04 03:27:03;;;;;;;3.33;2.78;;;6.60;99.90;;;;;;4990513;28;20392;-80
2021/12/04 03:29:31;;;;;;;3.53;3.22;;;6.70;99.90;;;;;;4991014;28;20054;-83
2021/12/04 03:40:34;;;;;;;2.85;2.65;;;6.60;99.90;;;;;;4972849;28;20066;-83
2021/12/04 03:42:57;;;;;;;3.97;2.80;;;6.70;99.90;;;;;;4972505;28;20493;-83
2021/12/04 03:45:22;;;;;;;3.58;2.60;;;6.70;99.90;;;;;;4971562;28;20026;-83
2021/12/04 03:47:51;;;;;;;3.10;2.80;;;6.70;99.90;;;;;;4970806;28;20019;-84
2021/12/04 03:50:17;;;;;;;3.33;3.13;;;6.70;99.90;;;;;;4973404;28;20081;-83
2021/12/04 03:52:43;;;;;;;3.58;3.28;;;6.70;99.90;;;;;;4976521;28;20463;-83
2021/12/04 03:55:09;;;;;;;3.40;3.10;;;6.70;99.90;;;;;;4974959;28;20033;-83
2021/12/04 03:57:35;;;;;;;3.42;3.10;;;6.70;99.90;;;;;;4974119;28;20066;-82
2021/12/04 04:00:04;;;;;;;3.50;3.30;;;6.70;99.90;;;;;;4976671;28;20018;-84
2021/12/04 04:02:29;;;;;;;3.05;2.85;;;6.70;99.90;;;;;;4974276;28;20034;-84
2021/12/04 04:04:55;;;;;;;3.78;3.38;;;6.70;99.90;;;;;;4975331;28;20026;-83
2021/12/04 04:07:22;;;;;;;3.60;3.30;;;6.70;99.90;;;;;;4976020;28;20037;-83
2021/12/04 04:09:48;;;;;;;4.07;3.35;;;6.70;99.90;;;;;;4975920;28;20027;-85
2021/12/04 04:12:13;;;;;;;4.63;3.85;;;6.70;99.90;;;;;;4975878;28;20038;-82
2021/12/04 04:14:39;;;;;;;3.67;3.38;;;6.70;99.90;;;;;;4976261;28;20021;-83
2021/12/04 04:17:05;;;;;;;4.43;3.38;;;6.70;99.90;;;;;;4974759;28;20142;-83
2021/12/04 04:19:31;;;;;;;3.83;3.42;;;6.70;99.90;;;;;;4975657;28;20077;-82
2021/12/04 04:21:58;;;;;;;3.80;3.50;;;6.70;99.90;;;;;;4974790;28;20352;-81
2021/12/04 04:24:25;;;;;;;4.15;3.75;;;6.70;99.90;;;;;;4974230;28;20023;-83
2021/12/04 04:26:51;;;;;;;4.10;3.70;;;6.70;99.90;;;;;;4975857;28;20046;-83
2021/12/04 04:29:17;;;;;;;4.25;3.40;;;6.70;99.90;;;;;;4976196;28;20037;-83
2021/12/04 04:31:46;;;;;;;3.97;3.60;;;6.70;99.90;;;;;;4975389;28;20054;-84
2021/12/04 04:34:25;;;;;;;4.03;3.63;;;6.70;99.90;;;;;;4975562;28;20448;-82
2021/12/04 04:59:07;;;;;;;5.63;4.85;;;6.70;99.90;;;;;;4975169;28;20383;-83
2021/12/04 05:12:46;;;;;;;7.65;6.28;;;6.70;99.90;;;;;;4974404;28;20049;-84
2021/12/04 05:15:22;;;;;;;7.93;5.88;;;6.70;99.90;;;;;;4973661;28;20438;-84
2021/12/04 05:20:21;;;;;;;7.20;5.85;;;6.70;99.90;;;;;;4974532;28;20049;-83
2021/12/04 05:22:46;;;;;;;6.82;5.47;;;6.70;99.90;;;;;;4974000;28;20494;-84
2021/12/04 05:25:12;;;;;;;6.40;5.40;;;6.70;99.90;;;;;;4974748;28;20031;-82
2021/12/04 05:27:38;;;;;;;6.50;5.50;;;6.60;99.90;;;;;;4972741;28;20506;-82
2021/12/04 05:30:06;;;;;;;8.10;6.53;;;6.70;99.90;;;;;;4974838;28;20023;-84
2021/12/04 05:32:31;;;;;;;7.13;5.38;;;6.70;99.90;;;;;;4974304;28;20027;-85
2021/12/04 05:34:57;;;;;;;9.52;6.05;;;6.70;99.90;;;;;;4973824;28;20023;-84
2021/12/04 05:37:22;;;;;;;7.88;6.43;;;6.70;99.90;;;;;;4974629;28;20055;-88
2021/12/04 05:39:48;;;;;;;9.48;6.60;;;6.70;99.90;;;;;;4973498;28;20423;-86
2021/12/04 05:42:14;;;;;;;6.53;5.53;;;6.70;99.90;;;;;;4973035;28;20029;-82
2021/12/04 05:44:41;;;;;;;7.90;5.60;;;6.70;99.90;;;;;;4975013;28;20096;-86
2021/12/04 05:47:15;;;;;;;8.55;6.43;;;6.70;99.90;;;;;;4972912;28;20618;-86
2021/12/04 05:55:11;;;;;;;7.13;5.90;;;6.70;99.90;;;;;;4974156;28;20117;-83
2021/12/04 05:57:37;;;;;;;9.15;6.13;;;6.70;99.90;;;;;;4974309;28;20046;-85
2021/12/04 06:00:10;;;;;;;8.82;6.43;;;6.70;99.90;;;;;;4973324;28;20113;-87
2021/12/04 06:02:36;;;;;;;9.10;6.60;;;6.70;99.90;;;;;;4973576;28;20062;-85
2021/12/04 06:05:01;;;;;;;9.35;7.00;;;6.60;99.90;;;;;;4972852;28;20058;-84
2021/12/04 06:07:27;;;;;;;8.73;7.43;;;6.60;99.90;;;;;;4973728;28;20031;-84
2021/12/04 06:09:52;;;;;;;9.77;7.10;;;6.60;99.90;;;;;;4972325;28;20023;-82
2021/12/04 06:12:18;;;;;;;10.23;7.05;;;6.60;99.90;;;;;;4972551;28;20050;-84
2021/12/04 06:14:45;;;;;;;8.82;5.88;;;6.60;99.90;;;;;;4973925;28;20070;-85
2021/12/04 06:17:12;;;;;;;9.75;6.90;;;6.60;99.90;;;;;;4971904;28;20015;-83
2021/12/04 06:25:08;;;;;;;8.23;7.07;;;6.60;99.90;;;;;;4973690;28;20052;-85
2021/12/04 06:27:34;;;;;;;12.40;6.75;;;6.70;99.90;;;;;;4972011;28;20035;-85
2021/12/04 06:30:00;;;;;;;9.40;6.80;;;6.60;99.90;;;;;;4973576;28;20030;-83
2021/12/04 06:32:26;;;;;;;7.72;6.00;;;6.70;99.90;;;;;;4972005;28;20037;-83
2021/12/04 06:34:52;;;;;;;11.82;6.72;;;6.70;99.90;;;;;;4974060;28;20029;-86
2021/12/04 06:37:18;;;;;;;7.25;5.10;;;6.70;99.90;;;;;;4971648;28;20129;-91
2021/12/04 06:39:44;;;;;;;7.53;5.55;;;6.70;99.90;;;;;;4972731;28;20023;-83
2021/12/04 06:42:10;;;;;;;7.43;5.25;;;6.70;99.90;;;;;;4973546;28;20681;-84
2021/12/04 06:44:36;;;;;;;6.80;5.30;;;6.70;99.90;;;;;;4972785;28;20031;-85
2021/12/04 06:47:02;;;;;;;7.75;6.25;;;6.70;99.90;;;;;;4972034;28;20047;-83
2021/12/04 06:49:32;;;;;;;8.93;6.30;;;6.70;99.90;;;;;;4971220;28;20022;-83
2021/12/04 06:52:01;;;;;;;9.05;6.78;;;6.70;99.90;;;;;;4971668;28;20121;-83
2021/12/04 06:54:32;;;;;;;8.50;5.88;;;6.70;99.90;;;;;;4971039;28;20030;-83
2021/12/04 06:56:58;;;;;;;6.70;5.60;;;6.70;99.90;;;;;;4972110;28;20406;-82
2021/12/04 06:59:31;;;;;;;7.40;5.72;;;6.70;99.90;;;;;;4972721;28;20027;-83
2021/12/04 07:01:57;;;;;;;7.22;5.30;;;6.70;99.90;;;;;;4971993;28;20122;-83
2021/12/04 07:04:29;;;;;;;7.78;5.45;;;6.70;99.90;;;;;;4972692;28;20101;-82
2021/12/04 07:06:55;;;;;;;7.07;6.22;;;6.70;99.90;;;;;;4972186;28;20097;-82
2021/12/04 07:09:20;;;;;;;11.77;6.90;;;6.70;99.90;;;;;;4971624;28;20459;-82
2021/12/04 07:11:46;;;;;;;8.10;6.55;;;6.70;99.90;;;;;;4971498;28;20054;-82
2021/12/04 07:14:12;;;;;;;9.32;6.95;;;6.70;99.90;;;;;;4954532;28;20035;-81
2021/12/04 07:16:37;;;;;;;7.07;5.40;;;6.70;99.90;;;;;;4953517;29;20030;-83
2021/12/04 07:19:03;;;;;;;8.38;6.30;;;6.70;99.90;;;;;;4952962;28;20027;-83
2021/12/04 07:21:28;;;;;;;8.68;6.78;;;6.70;99.90;;;;;;4953362;29;20156;-81
2021/12/04 07:23:54;;;;;;;8.60;6.07;;;6.70;99.90;;;;;;4965264;28;20054;-82
2021/12/04 07:26:20;;;;;;;9.13;7.10;;;6.80;99.90;;;;;;4970666;28;20041;-81
2021/12/04 07:28:45;;;;;;;10.65;6.65;;;6.70;99.90;;;;;;4971730;28;20117;-82
2021/12/04 07:31:11;;;;;;;10.63;7.20;;;6.80;99.90;;;;;;4972561;28;20027;-78
2021/12/04 07:33:37;;;;;;;9.55;7.07;;;6.70;99.90;;;;;;4970771;28;20018;-80
2021/12/04 07:36:03;;;;;;;10.00;6.93;;;6.70;99.90;;;;;;4971278;28;20057;-79
2021/12/04 07:38:30;;;;;;;9.90;7.10;;;6.80;99.90;;;;;;4971026;28;20031;-83
2021/12/04 07:40:56;;;;;;;9.38;6.80;;;6.80;99.90;;;;;;4970015;28;20034;-80
2021/12/04 07:43:21;;;;;;;9.88;7.45;;;6.80;99.90;;;;;;4972616;28;20030;-82
2021/12/04 07:45:47;;;;;;;11.02;7.38;;;6.80;99.90;;;;;;4972664;28;20030;-82
2021/12/04 07:48:13;;;;;;;9.07;7.10;;;6.80;99.90;;;;;;4970858;28;20027;-77
2021/12/04 07:50:39;;;;;;;12.25;8.38;;;6.70;99.90;;;;;;4967998;28;20031;-79
2021/12/04 07:53:04;;;;;;;10.55;7.82;;;6.80;99.90;;;;;;4969441;28;20019;-81
2021/12/04 07:55:31;;;;;;;9.50;7.40;;;6.80;99.90;;;;;;4969372;28;20102;-80
2021/12/04 07:57:57;;;;;;;9.82;7.53;;;6.80;99.90;;;;;;4969142;28;20116;-80
2021/12/04 08:00:23;;;;;;;10.63;8.05;;;6.80;99.90;;;;;;4969081;28;20049;-76
2021/12/04 08:02:49;;;;;;;10.00;7.40;;;6.80;99.90;;;;;;4970459;28;20479;-79
2021/12/04 08:05:16;;;;;;;12.57;8.60;;;6.80;99.90;;;;;;4970861;28;20029;-82
2021/12/04 08:07:43;;;;;;;10.50;7.57;;;6.80;99.90;;;;;;4970306;28;20041;-75
2021/12/04 08:10:12;;;;;;;10.15;8.15;;;6.80;99.90;;;;;;4970935;28;20028;-80
2021/12/04 08:12:38;;;;;;;7.72;6.65;;;6.80;99.90;;;;;;4970043;28;20027;-80
2021/12/04 08:15:06;;;;;;;11.38;7.07;;;6.80;99.90;;;;;;4970233;28;20026;-77
2021/12/04 08:17:31;;;;;;;12.98;8.20;;;6.90;99.90;;;;;;4968610;28;20043;-77
2021/12/04 08:19:57;;;;;;;10.70;7.93;;;6.90;99.90;;;;;;4968246;28;20034;-76
2021/12/04 08:22:23;;;;;;;10.20;7.00;;;6.90;99.90;;;;;;4974719;28;20030;-78
2021/12/04 08:24:49;;;;;;;11.18;7.28;;;6.90;99.90;;;;;;4970469;28;20046;-74
2021/12/04 08:27:17;;;;;;;9.77;7.03;;;6.90;99.90;;;;;;4970286;28;20130;-80
2021/12/04 08:29:43;;;;;;;11.85;7.75;;;6.90;99.90;;;;;;4968544;28;20015;-77
2021/12/04 08:32:09;;;;;;;12.65;7.72;;;6.90;99.90;;;;;;4965519;28;20030;-80
2021/12/04 08:34:37;;;;;;;10.15;6.70;;;6.90;99.90;;;;;;4962152;28;20057;-82
2021/12/04 08:37:04;;;;;;;11.73;7.38;;;6.90;99.90;;;;;;4946042;28;20075;-80
2021/12/04 08:39:30;;;;;;;11.30;7.82;;;6.90;99.90;;;;;;4958506;28;20027;-79
2021/12/04 08:41:56;;;;;;;11.18;7.47;;;6.90;99.90;;;;;;4972399;28;20027;-78
2021/12/04 08:44:22;;;;;;;13.48;8.27;;;6.90;99.90;;;;;;4970914;28;20031;-78
2021/12/04 08:46:47;;;;;;;9.80;7.53;;;6.90;99.90;;;;;;4970367;28;20042;-78
2021/12/04 08:49:14;;;;;;;10.75;6.68;;;6.90;99.90;;;;;;4968147;28;20054;-81
2021/12/04 08:51:42;;;;;;;9.68;6.53;;;6.90;99.90;;;;;;4970570;28;20568;-82
2021/12/04 08:54:08;;;;;;;9.02;6.63;;;6.90;99.90;;;;;;4972683;28;20051;-81
2021/12/04 08:56:34;;;;;;;10.98;7.15;;;7.00;99.90;;;;;;4971884;28;20042;-86
2021/12/04 08:59:01;;;;;;;12.27;7.70;;;7.00;99.90;;;;;;4969835;28;20073;-82
2021/12/04 09:01:31;;;;;;;9.77;7.15;;;7.00;99.90;;;;;;4971837;28;20471;-81
2021/12/04 09:04:04;;;;;;;11.65;7.68;;;7.00;99.90;;;;;;4971293;28;20026;-81
2021/12/04 09:06:31;;;;;;;15.10;8.57;;;7.00;99.90;;;;;;4971759;28;20035;-78
2021/12/04 09:08:58;;;;;;;12.90;8.07;;;7.10;99.90;;;;;;4971767;28;20474;-81
2021/12/04 09:11:28;;;;;;;13.70;8.63;;;7.10;99.90;;;;;;4971779;28;20041;-76
2021/12/04 09:13:54;;;;;;;10.45;7.82;;;7.10;99.90;;;;;;4972852;28;20044;-79
2021/12/04 09:16:22;;;;;;;11.48;8.52;;;7.10;99.90;;;;;;4972444;28;20112;-79
2021/12/04 09:18:47;;;;;;;10.70;7.35;;;7.10;99.90;;;;;;4974462;28;20015;-79
2021/12/04 09:21:13;;;;;;;9.50;7.88;;;7.10;99.90;;;;;;4973467;28;20085;-79
2021/12/04 09:23:42;;;;;;;12.15;8.35;;;7.10;99.90;;;;;;4973594;28;20027;-79
2021/12/04 09:26:14;;;;;;;8.27;6.60;;;7.20;99.90;;;;;;4974175;28;20117;-80
2021/12/04 10:02:05;;;;;;;10.05;7.75;;;7.30;99.90;;;;;;4973517;28;20603;-79
2021/12/04 10:15:54;;;;;;;11.80;8.32;;;7.40;99.90;;;;;;4927779;28;20033;-80
2021/12/04 10:18:45;;;;;;;10.20;7.90;;;7.40;99.90;;;;;;4973863;28;20034;-81
2021/12/04 10:24:13;;;;;;;13.15;9.43;;;7.40;99.90;;;;;;4974320;28;20053;-79
2021/12/04 10:32:28;;;;;;;14.90;8.98;;;7.40;99.90;;;;;;4973769;28;20054;-80
2021/12/04 10:34:58;;;;;;;10.83;8.63;;;7.30;99.90;;;;;;4972790;28;20085;-80
2021/12/04 10:37:28;;;;;;;18.38;11.00;;;7.40;99.90;;;;;;4971714;28;20047;-80
2021/12/04 10:40:05;;;;;;;13.02;8.93;;;7.40;99.90;;;;;;4972353;28;20026;-80
2021/12/04 10:42:43;;;;;;;14.30;9.48;;;7.40;99.90;;;;;;4971297;28;20034;-79
2021/12/04 10:45:09;;;;;;;12.15;8.90;;;7.40;99.90;;;;;;4973551;28;20054;-79
2021/12/04 10:47:35;;;;;;;14.93;8.90;;;7.40;99.90;;;;;;4971704;28;20094;-79
2021/12/04 10:55:16;;;;;;;11.02;8.00;;;7.40;99.90;;;;;;4973105;28;20471;-80
2021/12/04 11:03:49;;;;;;;15.05;9.07;;;7.50;99.90;;;;;;4973401;28;20103;-80
2021/12/04 11:19:59;;;;;;;12.82;9.70;;;7.50;99.90;;;;;;4972084;28;20045;-80
2021/12/04 11:28:18;;;;;;;12.68;8.80;;;7.50;99.90;;;;;;4972701;28;20093;-79
2021/12/04 11:46:41;;;;;;;8.38;7.47;;;7.60;99.90;;;;;;4971847;28;20050;-79
2021/12/04 11:49:22;;;;;;;9.10;7.53;;;7.60;99.90;;;;;;4971522;28;20502;-80
2021/12/04 11:52:16;;;;;;;9.43;7.63;;;7.60;99.90;;;;;;4971629;28;20451;-80
2021/12/04 11:54:53;;;;;;;10.50;7.72;;;7.60;99.90;;;;;;4966170;28;20121;-80
2021/12/04 11:57:30;;;;;;;10.05;7.93;;;7.60;99.90;;;;;;4971068;28;20033;-80
2021/12/04 12:00:21;;;;;;;8.88;7.35;;;7.60;99.90;;;;;;4970653;28;20030;-80
2021/12/04 12:02:46;;;;;;;8.80;7.43;;;7.60;99.90;;;;;;4971417;28;20026;-80
2021/12/04 12:05:18;;;;;;;11.05;8.63;;;7.60;99.90;;;;;;4971402;28;20085;-79
2021/12/04 12:07:56;;;;;;;9.45;7.50;;;7.60;99.90;;;;;;4970453;28;20675;-80
2021/12/04 12:10:26;;;;;;;8.85;7.65;;;7.60;99.90;;;;;;4971700;28;20479;-79
2021/12/04 12:13:03;;;;;;;8.30;7.40;;;7.60;99.90;;;;;;4975384;28;20031;-79
2021/12/04 12:15:33;;;;;;;9.57;7.70;;;7.60;99.90;;;;;;4975171;28;20495;-79
2021/12/04 12:18:12;;;;;;;8.40;7.50;;;7.60;99.90;;;;;;4974920;28;20054;-80
2021/12/04 12:20:45;;;;;;;8.60;7.70;;;7.70;99.90;;;;;;4975856;28;20029;-81
2021/12/04 12:23:13;;;;;;;8.48;7.22;;;7.70;99.90;;;;;;4974468;28;20387;-80
2021/12/04 12:34:27;;;;;;;8.18;7.30;;;7.70;99.90;;;;;;4976010;28;20114;-79
2021/12/04 12:36:35;;;;;;;7.13;6.43;;;7.70;99.90;;;;;;4970143;28;20105;-80
2021/12/04 12:39:15;;;;;;;8.10;7.30;;;7.70;99.90;;;;;;4974480;28;20030;-79
2021/12/04 12:41:42;;;;;;;7.07;6.38;;;7.70;99.90;;;;;;4974505;28;20053;-79
2021/12/04 12:44:17;;;;;;;6.57;5.97;;;7.60;99.90;;;;;;4973551;28;20030;-79
2021/12/04 12:46:47;;;;;;;6.47;5.88;;;7.70;99.90;;;;;;4974067;28;20394;-79
2021/12/04 12:49:40;;;;;;;6.57;5.97;;;7.70;99.90;;;;;;4972432;28;20361;-79
2021/12/04 12:52:14;;;;;;;6.95;6.20;;;7.70;99.90;;;;;;4954011;28;20039;-76
2021/12/04 12:55:02;;;;;;;7.07;6.38;;;7.70;99.90;;;;;;4970114;28;20037;-77
2021/12/04 12:57:29;;;;;;;7.10;6.45;;;7.70;99.90;;;;;;4973623;28;20105;-78
2021/12/04 13:14:25;;;;;;;6.60;6.00;;;7.70;99.90;;;;;;4973708;28;20030;-79
2021/12/04 13:17:11;;;;;;;7.60;6.50;;;7.70;99.90;;;;;;4973789;28;20424;-76
2021/12/04 13:19:40;;;;;;;6.85;6.22;;;7.70;99.90;;;;;;4972309;28;20080;-78
2021/12/04 13:22:10;;;;;;;8.02;6.97;;;7.70;99.90;;;;;;4972351;28;20085;-79
2021/12/04 13:24:38;;;;;;;7.03;6.18;;;7.70;99.90;;;;;;4974530;28;20029;-81
2021/12/04 13:29:40;;;;;;;6.25;5.75;;;7.70;99.90;;;;;;4973628;28;20026;-77
2021/12/04 13:32:08;;;;;;;7.70;6.28;;;7.70;99.90;;;;;;4972214;28;20026;-76
2021/12/04 13:34:36;;;;;;;6.93;6.32;;;7.70;99.90;;;;;;4972103;28;20038;-77
2021/12/04 13:37:02;;;;;;;6.57;5.97;;;7.70;99.90;;;;;;4972948;28;20046;-76
2021/12/04 13:39:28;;;;;;;5.82;5.32;;;7.70;99.90;;;;;;4972152;28;20027;-79
2021/12/04 13:41:54;;;;;;;5.88;5.38;;;7.70;99.90;;;;;;4973551;28;20066;-81
2021/12/04 13:44:22;;;;;;;5.88;5.28;;;7.70;99.90;;;;;;4972444;28;20032;-81
2021/12/04 13:46:55;;;;;;;6.28;5.70;;;7.70;99.90;;;;;;4972001;28;20031;-78
2021/12/04 13:49:26;;;;;;;6.40;5.88;;;7.70;99.90;;;;;;4973465;28;20026;-80
2021/12/04 13:51:54;;;;;;;6.32;5.78;;;7.70;99.90;;;;;;4973351;28;20237;-82
2021/12/04 13:54:20;;;;;;;5.72;5.13;;;7.70;99.90;;;;;;4978248;28;20026;-81
2021/12/04 13:56:46;;;;;;;6.30;5.70;;;7.70;99.90;;;;;;4983552;28;20069;-79
2021/12/04 13:59:11;;;;;;;6.55;5.97;;;7.70;99.90;;;;;;4972419;28;20077;-81
2021/12/04 14:01:42;;;;;;;6.78;6.13;;;7.70;99.90;;;;;;4971088;28;20138;-89
2021/12/04 14:04:15;;;;;;;6.50;5.90;;;7.70;99.90;;;;;;4960937;28;20031;-87
2021/12/04 14:06:51;;;;;;;6.43;5.78;;;7.70;99.90;;;;;;4972865;28;20053;-81
2021/12/04 14:09:17;;;;;;;5.88;5.38;;;7.70;99.90;;;;;;4973146;28;20487;-85
2021/12/04 14:11:43;;;;;;;6.63;6.03;;;7.70;99.90;;;;;;4974444;28;20034;-84
2021/12/04 14:14:10;;;;;;;6.35;5.75;;;7.70;99.90;;;;;;4985553;28;20033;-86
2021/12/04 14:16:36;;;;;;;6.10;5.60;;;7.70;99.90;;;;;;4966972;28;20057;-80
2021/12/04 14:19:17;;;;;;;6.97;6.35;;;7.70;99.90;;;;;;4968628;28;20034;-80
2021/12/04 14:22:08;;;;;;;6.97;6.28;;;7.70;99.90;;;;;;4968609;28;20086;-81
2021/12/04 14:24:44;;;;;;;8.23;7.47;;;7.70;99.90;;;;;;4970806;28;20030;-85
2021/12/04 14:27:19;;;;;;;7.60;6.90;;;7.70;99.90;;;;;;4973313;28;20030;-88
2021/12/04 14:29:49;;;;;;;9.10;6.38;;;7.70;99.90;;;;;;4972246;28;20437;-85
2021/12/04 14:32:20;;;;;;;7.65;6.80;;;7.70;99.90;;;;;;4971413;28;20023;-83
2021/12/04 14:34:46;;;;;;;9.18;7.05;;;7.70;99.90;;;;;;4968728;28;20034;-83
2021/12/04 14:37:14;;;;;;;8.23;7.47;;;7.70;99.90;;;;;;4972163;28;20760;-84
2021/12/04 14:39:50;;;;;;;8.82;8.02;;;7.70;99.90;;;;;;4973927;28;20030;-88
2021/12/04 14:42:25;;;;;;;7.63;6.93;;;7.70;99.90;;;;;;4972245;28;20022;-88
2021/12/04 14:44:57;;;;;;;10.13;7.90;;;7.70;99.90;;;;;;4975674;28;20019;-85
2021/12/04 14:47:28;;;;;;;9.50;8.02;;;7.70;99.90;;;;;;4991793;28;20050;-85
2021/12/04 14:49:59;;;;;;;7.88;7.13;;;7.70;99.90;;;;;;4988591;28;20033;-84
2021/12/04 14:52:25;;;;;;;7.90;7.20;;;7.70;99.90;;;;;;4951982;29;20483;-85
2021/12/04 14:54:53;;;;;;;8.98;8.05;;;7.70;99.90;;;;;;4951127;29;20744;-82
2021/12/04 14:57:22;;;;;;;9.68;8.68;;;7.70;99.90;;;;;;4952751;28;20027;-85
2021/12/04 15:00:00;;;;;;;9.43;8.43;;;7.70;99.90;;;;;;4952445;29;20027;-88
2021/12/04 15:02:26;;;;;;;9.90;8.43;;;7.60;99.90;;;;;;4960875;28;20031;-85
2021/12/04 15:04:52;;;;;;;9.75;8.75;;;7.60;99.90;;;;;;4968832;28;20085;-87
2021/12/04 15:07:25;;;;;;;9.43;8.52;;;7.70;99.90;;;;;;4973805;28;20043;-88
2021/12/04 15:09:51;;;;;;;9.07;8.18;;;7.70;99.90;;;;;;4973000;28;20023;-88
2021/12/04 15:12:32;;;;;;;9.13;8.23;;;7.70;99.90;;;;;;4972707;28;20125;-85
2021/12/04 15:15:03;;;;;;;9.27;8.48;;;7.60;99.90;;;;;;4974634;28;20046;-87
2021/12/04 15:17:32;;;;;;;9.40;8.50;;;7.60;99.90;;;;;;4971922;28;20392;-89
2021/12/04 15:20:09;;;;;;;9.77;8.68;;;7.60;99.90;;;;;;4971633;28;20035;-89
2021/12/04 15:22:38;;;;;;;9.38;8.27;;;7.60;99.90;;;;;;4971399;28;20027;-88
2021/12/04 15:25:09;;;;;;;9.75;8.77;;;7.60;99.90;;;;;;4970782;28;20119;-89
2021/12/04 15:27:35;;;;;;;13.52;10.52;;;7.60;99.90;;;;;;4971167;28;20034;-79
2021/12/04 15:30:04;;;;;;;19.88;14.13;;;7.60;99.90;;;;;;4960327;28;20026;-92
2021/12/04 15:32:30;;;;;;;13.68;11.65;;;7.60;99.90;;;;;;4970725;28;20030;-83
2021/12/04 15:35:25;;;;;;;12.48;11.10;;;7.60;99.90;;;;;;4975984;28;20037;-79
2021/12/04 15:38:01;;;;;;;11.18;10.02;;;7.50;99.90;;;;;;4988349;28;20121;-81
2021/12/04 15:43:34;;;;;;;11.57;9.52;;;7.50;99.90;;;;;;4980648;28;20069;-84
2021/12/04 15:46:58;;;;;;;11.20;9.77;;;7.50;99.90;;;;;;4971176;28;20122;-82
2021/12/04 15:54:05;;;;;;;12.38;10.55;;;7.50;99.90;;;;;;4977323;28;20035;-87
2021/12/04 15:56:49;;;;;;;12.52;10.18;;;7.50;99.90;;;;;;4969547;28;20035;-85
2021/12/04 15:59:16;;;;;;;11.25;10.10;;;7.60;99.90;;;;;;4957225;28;20029;-88
2021/12/04 16:01:43;;;;;;;11.10;10.00;;;7.60;99.90;;;;;;4954792;28;20031;-83
2021/12/04 16:04:29;;;;;;;10.05;9.05;;;7.60;99.90;;;;;;4970045;28;20020;-86
2021/12/04 16:06:56;;;;;;;10.52;9.52;;;7.60;99.90;;;;;;4975090;28;20038;-84
2021/12/04 16:09:26;;;;;;;12.35;10.55;;;7.60;99.90;;;;;;4977871;28;20167;-82
2021/12/04 16:11:59;;;;;;;13.82;12.27;;;7.70;99.90;;;;;;4975259;28;20034;-80
2021/12/04 16:14:33;;;;;;;14.68;11.95;;;7.60;99.90;;;;;;4974457;28;20015;-80
2021/12/04 16:16:59;;;;;;;13.80;12.40;;;7.60;99.90;;;;;;4975170;28;20387;-79
2021/12/04 16:19:27;;;;;;;12.57;11.27;;;7.60;99.90;;;;;;4974660;28;20027;-80
2021/12/04 16:21:58;;;;;;;24.27;18.15;;;7.50;99.90;;;;;;4974679;28;20055;-80